Aripuana, Brazil
Current Conditions -  °F | °C
As of 8:00 PM on Tuesday 25 Nov 2014 (Local Time) from SBVH Reporting Station
Moderate Rain Moderate Rain  
Wind Chill: 72°   Ceiling: 1700
Heat Index: 72°   Visibility: 6mi
Dew Point: 72°   Wind: 3mph
Humidity: 100%   Direction: 320°NW
Pressure: 29.85"   Gusts: NA
Location:  10.17°S, 59.46°W
Report Text: SBVH 252300Z 32003KT 9999 RA SCT004 BKN017 BKN090 22/22 Q1011
Loading
Personal Weather Stations






























Interactive Weather Map New forecast layout! Learn more

10-Day Weather Forecast

Advertisements
Track Severe Weather on mobile